עמוד ראשי
METAR-TAF:

METAR-TAF

שדות תעופה :

ליהואה, הוואי, ארצות הברית

קו רוחב: 21-59-02N, קו אורך: 159-20-28W, גובה: 45מטר

תצפית מזג אוויר נוכחית

הדו"ח נערך לפני 21דקות, בשעה 08:53 UTC
רוח 17קשר מכיוון מזרח/צפון-מזרח
טמפרטורת 25 צלסיוס
לחות 79%
לחץ 1021 hPa
ראות: 16.1קילומטר
מעונן בגובה 4900רגל

METAR: PHLI 240853Z AUTO 07017KT 10SM OVC049 25/21 A3015 RMK AO2 PK WND 07027/0802 SLP205 60000 T02500206 51015 TSNO $

זמן: 23:14 (09:14 UTC)

תחזית

הדו"ח נערך לפני 3 שעות ו 54דקות, בשעה 05:20 UTC
תחזית בתוקף מ 24 ב 06 UTC עד 25 ב 06 UTC
רוח 15קשר מכיוון מזרח/צפון-מזרח
ראות: 10קילומטר
מעט עננים בגובה 2500רגל
עננים פזורים בגובה 4500רגל
ממטרים במרחב,

TAF: PHLI 240520Z 2406/2506 06015KT P6SM VCSH FEW025 SCT045

תצפיות ותחזיות מזג אוויר לגבי יותר מ- 4,000 שדות תעופה ברחבי העולם. דוחות METAR ו- TAF.

התחנות הזמינות מסומנות בנקודות צהובות ואדומות על גבי המפה.

העבר את העכבר לנקודה הצבעונית על מנת לראות את שם התחנה.

לאחר מכן, לחץ כדי לראות את תוכן ואת תחזיות מזג האוויר.

כדי לשנות את המפה: לחץ על הכפתורים הירוקים עם הפלוס השחור כדי להתקרב; על הכפתור הירוק עם המקף כדי להתרחק; או בחיצים הירוקים למפות סמוכות.


METAR-TAF: